KSLG

Smith Field Airport

Siloam Springs, Arkansas, USA
METAR KSLG 210456Z AUTO 27006KT 10SM OVC055 21/18 A3000 RMK AO2 SLP151 T02060178 TSNO
Observed Flight Rules
Aug-21 @ 04:56 UTC (9 hours ago) Visual Flight Rules
Wind Visibility Clouds
270° at 6 knots 10 miles
  • Overcast at 5,500' AGL
Temperatures Readings
Current 21°C / 70°F
Dewpoint 18°C / 64°F
Humidity 83%
Altimeter 30" Hg
Pressure 1015.1 hPa
Elevation 300
METAR KSLG 210456Z AUTO 27006KT 10SM OVC055 21/18 A3000 RMK AO2 SLP151 T02060178 TSNO
Observed Flight Rules
Aug-21 @ 04:56 UTC
(9 hours ago)
VFR
Wind Visibility
270° at 6 knots 10 miles
Clouds
  • Overcast at 5,500' AGL
Temperature Dewpoint
21°C / 70°F 18°C / 64°F
Humidity Altimeter Pressure
83% 30" Hg 1015.1 hPa